createdAt,value
2018-05-02T00:01:48.330Z,9.40
2018-05-02T00:04:14.749Z,9.00
2018-05-02T00:06:41.170Z,9.00
2018-05-02T00:09:07.591Z,9.00
2018-05-02T00:11:34.105Z,9.00
2018-05-02T00:14:00.606Z,9.10
2018-05-02T00:16:27.016Z,9.20
2018-05-02T00:18:53.392Z,9.10
2018-05-02T00:21:19.807Z,9.10
2018-05-02T00:23:47.740Z,9.10
2018-05-02T00:26:14.169Z,9.10
2018-05-02T00:28:40.657Z,9.20
2018-05-02T00:31:06.997Z,9.20
2018-05-02T00:33:33.428Z,9.10
2018-05-02T00:35:59.897Z,9.20
2018-05-02T00:38:26.287Z,9.20
2018-05-02T00:40:52.729Z,9.20
2018-05-02T00:43:19.182Z,9.20
2018-05-02T00:45:45.609Z,9.30
2018-05-02T00:48:12.019Z,9.30
2018-05-02T00:50:38.424Z,9.40
2018-05-02T00:53:04.869Z,9.40
2018-05-02T00:55:31.240Z,9.40
2018-05-02T00:57:57.661Z,9.40
2018-05-02T01:00:24.133Z,9.40
2018-05-02T01:02:50.621Z,9.30
2018-05-02T01:05:17.019Z,9.30
2018-05-02T01:07:44.238Z,9.10
2018-05-02T01:10:10.645Z,9.10
2018-05-02T01:12:37.112Z,9.20
2018-05-02T01:15:03.557Z,9.20
2018-05-02T01:17:30.688Z,9.40
2018-05-02T01:19:57.097Z,9.40
2018-05-02T01:22:23.496Z,9.40
2018-05-02T01:24:49.906Z,9.30
2018-05-02T01:27:16.931Z,9.30
2018-05-02T01:29:43.359Z,9.30
2018-05-02T01:32:10.476Z,9.20
2018-05-02T01:34:36.907Z,9.20
2018-05-02T01:37:03.297Z,9.20
2018-05-02T01:39:29.681Z,9.20
2018-05-02T01:41:56.069Z,9.30
2018-05-02T01:44:22.494Z,9.30
2018-05-02T01:46:48.933Z,9.20
2018-05-02T01:49:23.457Z,9.30
2018-05-02T01:51:49.894Z,9.20
2018-05-02T01:54:16.343Z,9.20
2018-05-02T01:56:42.728Z,9.10
2018-05-02T01:59:09.226Z,9.30
2018-05-02T02:01:35.658Z,9.30
2018-05-02T02:04:02.058Z,9.50
2018-05-02T02:06:28.512Z,9.50
2018-05-02T02:08:54.933Z,9.60
2018-05-02T02:11:22.026Z,9.60
2018-05-02T02:13:48.407Z,9.60
2018-05-02T02:16:14.833Z,9.60
2018-05-02T02:18:41.221Z,9.60
2018-05-02T02:21:08.388Z,9.80
2018-05-02T02:23:34.773Z,9.70
2018-05-02T02:26:01.181Z,9.90
2018-05-02T02:28:27.591Z,9.90
2018-05-02T02:30:54.036Z,10.00
2018-05-02T02:33:20.943Z,10.00
2018-05-02T02:35:47.403Z,10.00
2018-05-02T02:38:13.790Z,10.10
2018-05-02T02:40:40.994Z,10.10
2018-05-02T02:43:07.373Z,10.00
2018-05-02T02:45:33.766Z,9.90
2018-05-02T02:48:00.169Z,9.60
2018-05-02T02:50:26.599Z,9.40
2018-05-02T02:52:52.987Z,9.20
2018-05-02T02:55:19.503Z,9.10
2018-05-02T02:57:45.861Z,9.10
2018-05-02T03:00:12.265Z,9.10
2018-05-02T03:02:38.675Z,9.20
2018-05-02T03:05:05.122Z,9.40
2018-05-02T03:07:31.562Z,9.70
2018-05-02T03:09:57.972Z,9.80
2018-05-02T03:12:24.400Z,10.00
2018-05-02T03:14:50.814Z,10.00
2018-05-02T03:17:17.201Z,10.00
2018-05-02T03:19:43.607Z,9.90
2018-05-02T03:22:10.020Z,9.80
2018-05-02T03:24:36.447Z,9.90
2018-05-02T03:27:02.958Z,9.90
2018-05-02T03:29:29.329Z,9.90
2018-05-02T03:31:55.740Z,9.80
2018-05-02T03:34:29.025Z,9.80
2018-05-02T03:36:55.443Z,9.70
2018-05-02T03:39:21.864Z,9.80
2018-05-02T03:41:48.288Z,9.90
2018-05-02T03:44:15.470Z,10.00
2018-05-02T03:46:41.880Z,9.90
2018-05-02T03:49:09.062Z,10.00
2018-05-02T03:51:35.465Z,10.00
2018-05-02T03:54:01.858Z,9.90
2018-05-02T03:56:28.252Z,9.80
2018-05-02T03:58:54.648Z,9.60
2018-05-02T04:01:40.111Z,9.80
2018-05-02T04:07:13.958Z,9.70
2018-05-02T04:09:40.384Z,9.70
2018-05-02T04:12:07.645Z,9.80
2018-05-02T04:14:34.130Z,9.80
2018-05-02T04:17:00.524Z,9.90
2018-05-02T04:19:26.897Z,9.90
2018-05-02T04:21:54.081Z,10.00
2018-05-02T04:24:20.497Z,10.00
2018-05-02T04:26:46.926Z,10.10
2018-05-02T04:29:13.359Z,10.10
2018-05-02T04:31:39.735Z,10.10
2018-05-02T04:34:06.153Z,10.10
2018-05-02T04:36:32.547Z,10.10
2018-05-02T04:38:58.998Z,10.00
2018-05-02T04:41:25.425Z,9.90
2018-05-02T04:43:52.588Z,10.00
2018-05-02T04:46:18.993Z,10.10
2018-05-02T04:48:45.453Z,9.90
2018-05-02T04:51:11.847Z,10.00
2018-05-02T04:53:38.282Z,10.10
2018-05-02T04:56:04.737Z,10.10
2018-05-02T04:58:31.152Z,10.10
2018-05-02T05:00:58.315Z,10.10
2018-05-02T05:03:25.441Z,10.00
2018-05-02T05:05:52.640Z,9.90
2018-05-02T05:08:19.040Z,9.90
2018-05-02T05:10:45.449Z,9.70
2018-05-02T05:13:11.853Z,9.70
2018-05-02T05:15:38.274Z,9.80
2018-05-02T05:18:04.670Z,9.80
2018-05-02T05:20:31.068Z,9.90
2018-05-02T05:22:58.366Z,9.90
2018-05-02T05:25:25.496Z,10.00
2018-05-02T05:27:51.923Z,10.00
2018-05-02T05:30:18.325Z,10.10
2018-05-02T05:32:44.706Z,10.10
2018-05-02T05:35:12.104Z,10.20
2018-05-02T05:37:39.275Z,10.20
2018-05-02T05:40:05.668Z,10.30
2018-05-02T05:42:32.061Z,10.40
2018-05-02T05:44:59.306Z,10.10
2018-05-02T05:47:26.454Z,10.20
2018-05-02T05:49:52.942Z,10.20
2018-05-02T05:52:19.351Z,10.10
2018-05-02T05:54:45.741Z,10.10
2018-05-02T05:57:12.144Z,10.10
2018-05-02T05:59:39.234Z,10.00
2018-05-02T06:02:06.355Z,10.10
2018-05-02T06:04:32.774Z,10.00
2018-05-02T06:06:59.188Z,10.00
2018-05-02T06:09:25.605Z,9.90
2018-05-02T06:11:52.024Z,9.90
2018-05-02T06:14:18.412Z,10.00
2018-05-02T06:16:44.824Z,10.10
2018-05-02T06:19:11.261Z,10.20
2018-05-02T06:21:37.696Z,10.30
2018-05-02T06:24:04.197Z,10.30
2018-05-02T06:26:30.588Z,10.30
2018-05-02T06:28:57.049Z,10.30
2018-05-02T06:31:23.468Z,10.20
2018-05-02T06:33:49.864Z,10.20
2018-05-02T06:36:16.278Z,10.20
2018-05-02T06:38:42.722Z,10.10
2018-05-02T06:41:09.169Z,10.10
2018-05-02T06:43:35.739Z,10.20
2018-05-02T06:46:02.150Z,10.30
2018-05-02T06:48:29.367Z,10.40
2018-05-02T06:50:56.544Z,10.40
2018-05-02T06:53:23.769Z,10.50
2018-05-02T06:55:50.229Z,10.50
2018-05-02T06:58:17.340Z,10.70
2018-05-02T07:00:43.807Z,10.70
2018-05-02T07:03:10.938Z,10.70
2018-05-02T07:05:37.365Z,10.70
2018-05-02T07:08:03.799Z,10.70
2018-05-02T07:10:30.296Z,10.70
2018-05-02T07:12:56.703Z,10.70
2018-05-02T07:15:23.147Z,10.60
2018-05-02T07:17:49.561Z,10.70
2018-05-02T07:20:15.935Z,10.70
2018-05-02T07:22:42.376Z,10.80
2018-05-02T07:25:08.781Z,10.80
2018-05-02T07:27:35.200Z,10.70
2018-05-02T07:30:01.631Z,10.80
2018-05-02T07:32:28.169Z,10.80
2018-05-02T07:34:54.493Z,10.80
2018-05-02T07:37:20.949Z,10.90
2018-05-02T07:39:47.385Z,10.90
2018-05-02T07:42:13.913Z,10.90
2018-05-02T07:44:41.133Z,10.90
2018-05-02T07:47:07.578Z,10.80
2018-05-02T07:49:34.053Z,10.90
2018-05-02T07:52:01.229Z,10.90
2018-05-02T07:54:28.457Z,10.90
2018-05-02T07:57:01.788Z,10.90
2018-05-02T07:59:28.225Z,10.90
2018-05-02T08:01:54.658Z,10.80
2018-05-02T08:04:21.077Z,10.80
2018-05-02T08:06:47.491Z,10.80
2018-05-02T08:09:14.671Z,10.90
2018-05-02T08:11:42.100Z,10.90
2018-05-02T08:14:08.486Z,10.90
2018-05-02T08:16:34.958Z,10.90
2018-05-02T08:19:01.346Z,10.90
2018-05-02T08:21:28.743Z,11.00
2018-05-02T08:23:55.168Z,11.10
2018-05-02T08:26:22.293Z,11.00
2018-05-02T08:28:48.709Z,11.10
2018-05-02T08:31:15.102Z,11.10
2018-05-02T08:33:42.268Z,11.40
2018-05-02T08:36:08.640Z,11.30
2018-05-02T08:38:35.073Z,11.40
2018-05-02T08:41:01.483Z,11.50
2018-05-02T08:43:27.865Z,11.50
2018-05-02T08:45:54.296Z,11.40
2018-05-02T08:48:21.441Z,11.60
2018-05-02T08:50:47.914Z,11.60
2018-05-02T08:53:14.379Z,11.70
2018-05-02T08:55:40.788Z,11.60
2018-05-02T08:58:07.166Z,11.60
2018-05-02T09:00:33.565Z,11.50
2018-05-02T09:02:59.934Z,11.50
2018-05-02T09:05:26.413Z,11.50
2018-05-02T09:07:52.818Z,11.80
2018-05-02T09:10:19.204Z,11.90
2018-05-02T09:12:45.571Z,12.10
2018-05-02T09:15:11.983Z,12.20
2018-05-02T09:17:39.090Z,12.20
2018-05-02T09:20:05.476Z,12.20
2018-05-02T09:22:31.930Z,12.30
2018-05-02T09:24:58.334Z,12.40
2018-05-02T09:27:25.457Z,12.30
2018-05-02T09:29:51.830Z,12.30
2018-05-02T09:32:18.311Z,12.30
2018-05-02T09:34:45.439Z,12.60
2018-05-02T09:37:11.829Z,12.60
2018-05-02T09:39:38.282Z,12.60
2018-05-02T09:42:04.824Z,12.40
2018-05-02T09:44:31.236Z,12.30
2018-05-02T09:46:58.407Z,12.60
2018-05-02T09:49:24.956Z,12.60
2018-05-02T09:51:51.308Z,12.60
2018-05-02T09:54:17.707Z,12.60
2018-05-02T09:56:44.129Z,12.70
2018-05-02T09:59:10.589Z,12.80
2018-05-02T10:01:37.002Z,12.90
2018-05-02T10:04:03.518Z,12.90
2018-05-02T10:06:29.933Z,12.80
2018-05-02T10:08:56.382Z,12.90
2018-05-02T10:11:22.797Z,12.90
2018-05-02T10:13:49.212Z,13.00
2018-05-02T10:16:16.352Z,13.10
2018-05-02T10:18:42.847Z,13.10
2018-05-02T10:21:09.266Z,13.10
2018-05-02T10:23:35.737Z,13.10
2018-05-02T10:26:02.265Z,13.10
2018-05-02T10:28:28.678Z,13.10
2018-05-02T10:30:55.039Z,13.10
2018-05-02T10:33:21.425Z,13.20
2018-05-02T10:35:47.825Z,13.30
2018-05-02T10:38:14.311Z,13.30
2018-05-02T10:40:40.726Z,13.20
2018-05-02T10:43:07.124Z,13.30
2018-05-02T10:45:33.485Z,13.50
2018-05-02T10:48:00.614Z,13.50
2018-05-02T10:50:27.051Z,13.40
2018-05-02T10:52:54.157Z,13.00
2018-05-02T10:55:20.572Z,13.00
2018-05-02T10:57:46.942Z,13.10
2018-05-02T11:00:13.371Z,13.30
2018-05-02T11:02:39.737Z,13.40
2018-05-02T11:05:06.122Z,13.30
2018-05-02T11:07:33.292Z,13.50
2018-05-02T11:10:00.383Z,13.70
2018-05-02T11:12:26.834Z,13.60
2018-05-02T11:14:53.179Z,13.80
2018-05-02T11:17:20.336Z,13.80
2018-05-02T11:19:46.796Z,13.80
2018-05-02T11:22:13.194Z,13.80
2018-05-02T11:24:39.589Z,13.70
2018-05-02T11:27:05.982Z,13.70
2018-05-02T11:29:32.390Z,13.80
2018-05-02T11:31:58.797Z,14.00
2018-05-02T11:34:25.935Z,14.20
2018-05-02T11:36:52.375Z,14.20
2018-05-02T11:39:19.574Z,14.40
2018-05-02T11:41:46.026Z,14.40
2018-05-02T11:44:12.426Z,14.50
2018-05-02T11:46:39.600Z,14.50
2018-05-02T11:49:06.001Z,14.70
2018-05-02T11:51:32.400Z,14.60
2018-05-02T11:53:58.780Z,14.70
2018-05-02T11:56:25.205Z,14.70
2018-05-02T11:58:51.645Z,14.70
2018-05-02T12:01:18.019Z,14.70
2018-05-02T12:03:44.423Z,14.80
2018-05-02T12:06:10.825Z,14.90
2018-05-02T12:08:38.224Z,15.10
2018-05-02T12:11:04.627Z,15.10
2018-05-02T12:13:31.089Z,15.20
2018-05-02T12:15:57.503Z,15.40
2018-05-02T12:18:23.890Z,15.50
2018-05-02T12:20:50.292Z,15.40
2018-05-02T12:23:16.692Z,15.40
2018-05-02T12:25:43.104Z,15.60
2018-05-02T12:28:09.496Z,15.60
2018-05-02T12:30:36.592Z,15.70
2018-05-02T12:33:03.024Z,15.60
2018-05-02T12:35:29.478Z,15.80
2018-05-02T12:37:55.888Z,15.90
2018-05-02T12:40:22.312Z,15.90
2018-05-02T12:42:48.746Z,16.00
2018-05-02T12:45:15.105Z,15.90
2018-05-02T12:47:41.500Z,16.00
2018-05-02T12:50:07.861Z,15.90
2018-05-02T12:52:34.291Z,15.90
2018-05-02T12:55:00.700Z,15.90
2018-05-02T12:57:27.125Z,16.00
2018-05-02T12:59:53.534Z,15.80
2018-05-02T13:02:20.753Z,16.10
2018-05-02T13:04:47.155Z,16.00
2018-05-02T13:07:13.582Z,16.00
2018-05-02T13:09:39.973Z,16.00
2018-05-02T13:12:06.468Z,16.10
2018-05-02T13:14:32.988Z,16.00
2018-05-02T13:17:00.091Z,16.10
2018-05-02T13:19:26.487Z,16.10
2018-05-02T13:21:52.938Z,16.10
2018-05-02T13:24:20.088Z,16.30
2018-05-02T13:26:47.324Z,16.40
2018-05-02T13:29:14.482Z,16.40
2018-05-02T13:31:41.652Z,16.30
2018-05-02T13:34:08.052Z,16.30
2018-05-02T13:36:34.494Z,16.30
2018-05-02T13:39:00.928Z,16.20
2018-05-02T13:41:28.051Z,16.20
2018-05-02T13:43:54.584Z,16.20
2018-05-02T13:46:20.951Z,16.10
2018-05-02T13:48:47.423Z,16.00
2018-05-02T13:51:13.868Z,16.10
2018-05-02T13:53:40.319Z,16.30
2018-05-02T13:56:06.719Z,16.40
2018-05-02T13:58:33.105Z,16.20
2018-05-02T14:01:00.240Z,16.20
2018-05-02T14:03:27.439Z,16.20
2018-05-02T14:05:53.876Z,16.20
2018-05-02T14:08:20.379Z,16.20
2018-05-02T14:10:46.789Z,16.40
2018-05-02T14:13:13.163Z,16.60
2018-05-02T14:15:39.626Z,16.70
2018-05-02T14:18:06.078Z,16.90
2018-05-02T14:20:32.456Z,16.90
2018-05-02T14:22:58.842Z,16.90
2018-05-02T14:25:25.270Z,16.90
2018-05-02T14:27:51.653Z,16.90
2018-05-02T14:30:18.052Z,16.80
2018-05-02T14:32:44.483Z,16.80
2018-05-02T14:35:10.952Z,16.70
2018-05-02T14:37:38.858Z,17.00
2018-05-02T14:40:05.315Z,16.90
2018-05-02T14:42:32.492Z,17.00
2018-05-02T14:44:59.038Z,17.00
2018-05-02T14:47:25.405Z,17.10
2018-05-02T14:49:51.839Z,17.10
2018-05-02T14:52:18.360Z,16.90
2018-05-02T14:54:45.655Z,17.00
2018-05-02T14:57:12.116Z,17.20
2018-05-02T14:59:38.559Z,17.20
2018-05-02T15:02:05.080Z,17.00
2018-05-02T15:04:31.415Z,17.10
2018-05-02T15:06:57.853Z,17.10
2018-05-02T15:09:24.245Z,17.10
2018-05-02T15:11:50.692Z,17.10
2018-05-02T15:14:17.145Z,17.30
2018-05-02T15:16:43.615Z,17.30
2018-05-02T15:19:10.758Z,17.00
2018-05-02T15:21:37.928Z,16.90
2018-05-02T15:24:05.126Z,17.00
2018-05-02T15:26:31.568Z,17.00
2018-05-02T15:28:57.970Z,17.00
2018-05-02T15:31:24.361Z,16.90
2018-05-02T15:33:51.555Z,17.00
2018-05-02T15:36:18.052Z,16.90
2018-05-02T15:38:45.178Z,17.00
2018-05-02T15:41:11.608Z,17.00
2018-05-02T15:43:38.029Z,17.00
2018-05-02T15:46:04.470Z,17.00
2018-05-02T15:48:30.899Z,17.00
2018-05-02T15:50:57.348Z,16.80
2018-05-02T15:53:23.768Z,16.70
2018-05-02T15:55:50.936Z,16.70
2018-05-02T15:58:18.236Z,16.70
2018-05-02T16:00:45.377Z,16.70
2018-05-02T16:03:11.775Z,16.70
2018-05-02T16:05:38.248Z,16.70
2018-05-02T16:08:04.870Z,16.70
2018-05-02T16:10:31.285Z,16.70
2018-05-02T16:12:57.710Z,16.70
2018-05-02T16:15:24.143Z,16.60
2018-05-02T16:17:51.338Z,16.60
2018-05-02T16:20:17.750Z,16.60
2018-05-02T16:22:44.188Z,16.70
2018-05-02T16:25:10.608Z,16.70
2018-05-02T16:27:37.111Z,16.60
2018-05-02T16:30:03.502Z,16.70
2018-05-02T16:32:29.923Z,16.60
2018-05-02T16:34:56.334Z,16.50
2018-05-02T16:37:22.740Z,16.50
2018-05-02T16:39:49.227Z,16.50
2018-05-02T16:42:15.684Z,16.60
2018-05-02T16:44:42.097Z,16.60
2018-05-02T16:47:09.120Z,16.50
2018-05-02T16:49:35.496Z,16.40
2018-05-02T16:52:01.940Z,16.50
2018-05-02T16:54:28.372Z,16.50
2018-05-02T16:56:54.804Z,16.50
2018-05-02T16:59:22.834Z,16.60
2018-05-02T17:01:49.388Z,16.60
2018-05-02T17:04:15.868Z,16.60
2018-05-02T17:06:42.213Z,16.60
2018-05-02T17:09:08.700Z,16.50
2018-05-02T17:11:36.679Z,16.40
2018-05-02T17:14:03.129Z,16.40
2018-05-02T17:16:29.540Z,16.40
2018-05-02T17:18:56.717Z,16.40
2018-05-02T17:21:23.129Z,16.30
2018-05-02T17:23:49.652Z,16.40
2018-05-02T17:26:16.173Z,16.30
2018-05-02T17:28:42.621Z,16.30
2018-05-02T17:31:09.772Z,16.40
2018-05-02T17:33:36.166Z,16.40
2018-05-02T17:36:02.606Z,16.40
2018-05-02T17:38:29.753Z,16.40
2018-05-02T17:40:56.260Z,16.30
2018-05-02T17:43:22.632Z,16.40
2018-05-02T17:45:49.831Z,16.40
2018-05-02T17:48:16.245Z,16.40
2018-05-02T17:50:42.723Z,16.40
2018-05-02T17:53:09.175Z,16.40
2018-05-02T17:55:36.322Z,16.30
2018-05-02T17:58:04.525Z,16.20
2018-05-02T18:00:30.938Z,16.10
2018-05-02T18:02:57.346Z,16.10
2018-05-02T18:05:24.524Z,16.00
2018-05-02T18:07:52.472Z,16.00
2018-05-02T18:10:19.894Z,16.00
2018-05-02T18:12:49.636Z,16.00
2018-05-02T18:15:16.782Z,15.90
2018-05-02T18:17:43.193Z,15.90
2018-05-02T18:20:09.619Z,16.00
2018-05-02T18:22:36.075Z,16.00
2018-05-02T18:25:03.308Z,15.90
2018-05-02T18:27:29.754Z,15.90
2018-05-02T18:29:57.005Z,16.00
2018-05-02T18:32:24.259Z,15.90
2018-05-02T18:34:50.824Z,15.90
2018-05-02T18:37:17.230Z,15.90
2018-05-02T18:39:43.743Z,15.60
2018-05-02T18:42:10.200Z,15.40
2018-05-02T18:44:36.634Z,15.30
2018-05-02T18:47:03.854Z,15.30
2018-05-02T18:49:30.300Z,15.30
2018-05-02T18:51:56.800Z,15.20
2018-05-02T18:54:23.208Z,15.20
2018-05-02T18:56:49.711Z,15.10
2018-05-02T18:59:16.878Z,15.00
2018-05-02T19:01:43.275Z,15.00
2018-05-02T19:04:11.353Z,15.10
2018-05-02T19:06:37.842Z,15.10
2018-05-02T19:09:04.317Z,15.10
2018-05-02T19:11:30.830Z,15.00
2018-05-02T19:14:01.161Z,15.00
2018-05-02T19:16:27.703Z,14.90
2018-05-02T19:19:01.970Z,14.80
2018-05-02T19:21:28.477Z,14.80
2018-05-02T19:23:55.012Z,14.80
2018-05-02T19:26:27.673Z,14.80
2018-05-02T19:28:54.130Z,14.70
2018-05-02T19:31:26.521Z,14.70
2018-05-02T19:33:54.069Z,14.70
2018-05-02T19:36:20.505Z,14.60
2018-05-02T19:38:47.017Z,14.60
2018-05-02T19:41:19.730Z,14.60
2018-05-02T19:43:52.299Z,14.60
2018-05-02T19:46:18.904Z,14.50
2018-05-02T19:48:45.562Z,14.50
2018-05-02T19:51:18.248Z,14.60
2018-05-02T19:53:44.724Z,14.60
2018-05-02T19:56:12.017Z,14.40
2018-05-02T19:58:38.533Z,14.40
2018-05-02T20:01:11.801Z,14.40
2018-05-02T20:03:39.018Z,14.40
2018-05-02T20:06:05.516Z,14.40
2018-05-02T20:08:38.949Z,14.60
2018-05-02T20:11:11.533Z,14.60
2018-05-02T20:13:43.892Z,14.70
2018-05-02T20:16:10.430Z,14.70
2018-05-02T20:18:36.858Z,14.60
2018-05-02T20:21:03.274Z,14.70
2018-05-02T20:23:29.789Z,14.70
2018-05-02T20:25:56.321Z,14.70
2018-05-02T20:28:22.772Z,14.70
2018-05-02T20:30:49.269Z,14.60
2018-05-02T20:33:15.781Z,14.50
2018-05-02T20:35:42.245Z,14.50
2018-05-02T20:38:08.639Z,14.50
2018-05-02T20:40:35.102Z,14.60
2018-05-02T20:43:02.268Z,14.50
2018-05-02T20:45:28.716Z,14.50
2018-05-02T20:47:55.155Z,14.60
2018-05-02T20:50:21.607Z,14.50
2018-05-02T20:52:48.036Z,14.50
2018-05-02T20:55:14.504Z,14.40
2018-05-02T20:57:43.456Z,14.40
2018-05-02T21:00:10.887Z,14.30
2018-05-02T21:02:37.369Z,14.40
2018-05-02T21:05:03.857Z,14.50
2018-05-02T21:07:30.295Z,14.50
2018-05-02T21:09:56.725Z,14.50
2018-05-02T21:12:23.157Z,14.40
2018-05-02T21:14:49.601Z,14.40
2018-05-02T21:17:16.025Z,14.40
2018-05-02T21:19:42.503Z,14.40
2018-05-02T21:22:09.651Z,14.10
2018-05-02T21:24:36.051Z,14.10
2018-05-02T21:27:02.591Z,14.00
2018-05-02T21:29:29.003Z,14.00
2018-05-02T21:31:56.310Z,13.90
2018-05-02T21:34:22.725Z,14.00
2018-05-02T21:36:49.171Z,13.90
2018-05-02T21:39:16.287Z,13.90
2018-05-02T21:41:42.752Z,13.90
2018-05-02T21:44:09.916Z,14.10
2018-05-02T21:46:36.319Z,14.10
2018-05-02T21:49:02.775Z,14.20
2018-05-02T21:51:29.957Z,14.40
2018-05-02T21:53:56.377Z,14.40
2018-05-02T21:56:22.769Z,14.40
2018-05-02T21:58:49.272Z,14.40
2018-05-02T22:01:15.711Z,14.50
2018-05-02T22:03:42.108Z,14.50
2018-05-02T22:06:08.543Z,14.40
2018-05-02T22:08:34.974Z,14.40
2018-05-02T22:11:01.368Z,14.20
2018-05-02T22:13:28.551Z,14.20
2018-05-02T22:15:54.955Z,14.20
2018-05-02T22:18:22.124Z,14.30
2018-05-02T22:20:49.073Z,14.20
2018-05-02T22:23:15.482Z,14.10
2018-05-02T22:25:42.684Z,14.20
2018-05-02T22:28:09.920Z,14.10
2018-05-02T22:30:36.340Z,14.10
2018-05-02T22:33:02.769Z,14.00
2018-05-02T22:35:29.130Z,13.90
2018-05-02T22:37:55.537Z,14.00
2018-05-02T22:40:21.961Z,14.00
2018-05-02T22:42:48.345Z,13.90
2018-05-02T22:45:14.725Z,13.90
2018-05-02T22:47:41.141Z,13.90
2018-05-02T22:50:07.535Z,13.90
2018-05-02T22:52:33.946Z,13.80
2018-05-02T22:55:00.305Z,13.80
2018-05-02T22:57:27.416Z,13.70
2018-05-02T22:59:53.857Z,13.70
2018-05-02T23:02:20.289Z,13.70
2018-05-02T23:04:46.813Z,13.70
2018-05-02T23:07:13.253Z,13.70
2018-05-02T23:09:39.620Z,13.70
2018-05-02T23:12:06.788Z,13.70
2018-05-02T23:14:33.176Z,13.60
2018-05-02T23:16:59.543Z,13.70
2018-05-02T23:19:25.963Z,13.70
2018-05-02T23:21:53.095Z,13.60
2018-05-02T23:24:19.474Z,13.60
2018-05-02T23:26:46.588Z,13.70
2018-05-02T23:29:13.731Z,13.90
2018-05-02T23:31:40.885Z,13.90
2018-05-02T23:34:07.292Z,13.90
2018-05-02T23:36:33.660Z,13.90
2018-05-02T23:39:00.764Z,14.00
2018-05-02T23:41:27.124Z,13.90
2018-05-02T23:43:54.277Z,14.10
2018-05-02T23:46:21.423Z,14.10
2018-05-02T23:48:49.373Z,14.10
2018-05-02T23:51:15.751Z,14.10
2018-05-02T23:53:42.217Z,14.20
2018-05-02T23:56:08.573Z,14.20
2018-05-02T23:58:35.711Z,14.20
